Kenduskeag, Maine
Current Conditions -  °F | °C
As of 9:00 AM on Wednesday 28 Jan 2015 (Local Time) from KBGR Reporting Station
Light Snow Light Snow  
Wind Chill: -1°   Ceiling: 3500
Heat Index: 15°   Visibility: 2mi
Dew Point:   Wind: 16mph
Humidity: 77%   Direction: 340°NNW
Pressure: 29.82"   Gusts: NA
Location:  44.92°N, 68.93°W
Report Text: KBGR 281400Z 34014KT 2SM -SN BLSN BR SCT030 OVC035 M09/M13 A2982 RMK AO2 P0000 T10941128
Loading
Personal Weather Stations






























Interactive Weather Map New forecast layout! Learn more

10-Day Weather Forecast

Advertisements
Track Severe Weather on mobile